Time;durP1;ratioP1;P1;durP2;ratioP2;P2;SDS_P1;SDS_P2;PMS_P1;PMS_P2;Temp;Humidity;BMP_temperature;BMP_pressure;BME280_temperature;BME280_humidity;BME280_pressure;Samples;Min_cycle;Max_cycle;Signal;HPM_P1;HPM_P2
2022/10/17 00:03:42;;;;;;;115.03;47.08;;;7.80;99.90;;;;;;21058942;28;20032;-51
2022/10/17 00:13:47;;;;;;;69.82;32.85;;;7.80;99.90;;;;;;21057481;28;20036;-50
2022/10/17 00:23:51;;;;;;;83.20;37.50;;;7.60;99.90;;;;;;21036825;28;20097;-51
2022/10/17 00:33:53;;;;;;;58.47;28.13;;;7.60;99.90;;;;;;21056303;28;20039;-52
2022/10/17 00:44:27;;;;;;;67.22;32.20;;;7.90;99.90;;;;;;21002937;28;20382;-52
2022/10/17 00:54:43;;;;;;;63.60;31.50;;;8.20;99.90;;;;;;20970538;28;20094;-58
2022/10/17 01:04:49;;;;;;;76.78;37.63;;;8.20;99.90;;;;;;20953585;28;20478;-52
2022/10/17 01:14:55;;;;;;;96.72;42.78;;;8.20;99.90;;;;;;20969743;28;20033;-51
2022/10/17 01:25:20;;;;;;;109.63;45.10;;;8.00;99.90;;;;;;20949348;28;20087;-52
2022/10/17 01:35:31;;;;;;;71.72;36.28;;;8.00;99.90;;;;;;20968708;28;20083;-51
2022/10/17 01:46:01;;;;;;;51.13;26.63;;;8.10;99.90;;;;;;21016871;28;20044;-51
2022/10/17 01:56:07;;;;;;;83.85;36.40;;;8.00;99.90;;;;;;21047437;28;20090;-51
2022/10/17 02:06:10;;;;;;;88.70;37.80;;;7.90;99.90;;;;;;21051038;28;20032;-51
2022/10/17 02:16:31;;;;;;;97.50;41.08;;;7.90;99.90;;;;;;21050578;28;20088;-49
2022/10/17 02:26:51;;;;;;;110.40;43.45;;;7.90;99.90;;;;;;21029986;28;20095;-50
2022/10/17 02:36:58;;;;;;;115.53;45.15;;;8.00;99.90;;;;;;21065281;28;20036;-57
2022/10/17 02:47:16;;;;;;;92.88;40.22;;;8.00;99.90;;;;;;21064618;28;20109;-53
2022/10/17 02:57:36;;;;;;;125.90;48.25;;;8.00;99.90;;;;;;21063802;28;20036;-50
2022/10/17 03:07:39;;;;;;;136.75;50.97;;;8.00;99.90;;;;;;21062539;28;20562;-51
2022/10/17 03:17:42;;;;;;;100.95;42.78;;;8.00;99.90;;;;;;21039286;28;20165;-52
2022/10/17 03:27:45;;;;;;;99.00;40.70;;;7.90;99.90;;;;;;21032425;28;20052;-51
2022/10/17 03:37:48;;;;;;;103.40;41.35;;;7.90;99.90;;;;;;21044179;28;20058;-56
2022/10/17 03:47:52;;;;;;;73.28;34.53;;;7.80;99.90;;;;;;20976894;28;20037;-49
2022/10/17 03:57:54;;;;;;;101.45;42.75;;;7.90;99.90;;;;;;20975600;28;20033;-60
2022/10/17 04:07:59;;;;;;;100.30;41.70;;;8.00;99.90;;;;;;20974235;28;20040;-53
2022/10/17 04:18:21;;;;;;;100.00;41.40;;;7.80;99.90;;;;;;20960865;28;20036;-51
2022/10/17 04:28:26;;;;;;;75.45;33.38;;;7.70;99.90;;;;;;20949428;28;20044;-52
2022/10/17 04:38:29;;;;;;;58.45;26.27;;;7.70;99.90;;;;;;20977845;28;20105;-49
2022/10/17 04:48:32;;;;;;;54.25;26.70;;;7.70;99.90;;;;;;21038805;28;20044;-51
2022/10/17 04:58:37;;;;;;;75.20;33.92;;;7.90;99.90;;;;;;21054321;28;20040;-51
2022/10/17 05:08:42;;;;;;;67.20;30.52;;;8.00;99.90;;;;;;20978500;28;20058;-50
2022/10/17 05:18:48;;;;;;;41.20;21.33;;;8.10;99.90;;;;;;21021347;28;20036;-50
2022/10/17 05:28:53;;;;;;;39.03;19.20;;;7.90;99.90;;;;;;20985212;28;20037;-51
2022/10/17 05:38:58;;;;;;;54.35;25.88;;;7.90;99.90;;;;;;20981338;28;20555;-51
2022/10/17 05:49:03;;;;;;;67.60;31.75;;;7.70;99.90;;;;;;21036861;28;20062;-59
2022/10/17 05:59:07;;;;;;;60.47;30.08;;;7.80;99.90;;;;;;21035790;28;20040;-50
2022/10/17 06:09:19;;;;;;;56.58;29.58;;;8.10;99.90;;;;;;21034372;28;20036;-52
2022/10/17 06:19:25;;;;;;;61.22;30.58;;;8.10;99.90;;;;;;20975455;28;20086;-49
2022/10/17 06:29:29;;;;;;;62.42;29.63;;;8.20;99.90;;;;;;21033531;28;20032;-52
2022/10/17 06:39:33;;;;;;;52.22;25.52;;;8.40;99.90;;;;;;21056903;28;20461;-53
2022/10/17 06:49:41;;;;;;;43.47;23.27;;;8.60;99.90;;;;;;21048645;28;20036;-52
2022/10/17 06:59:58;;;;;;;53.58;28.33;;;8.80;99.90;;;;;;21064108;28;20097;-51
2022/10/17 07:10:08;;;;;;;51.97;27.70;;;9.20;99.90;;;;;;21046410;28;20036;-59
2022/10/17 07:20:12;;;;;;;45.72;26.65;;;9.80;99.90;;;;;;21025882;28;20032;-49
2022/10/17 07:30:16;;;;;;;42.45;25.42;;;10.60;99.90;;;;;;21061684;28;20040;-53
2022/10/17 07:40:28;;;;;;;45.42;27.25;;;11.40;99.90;;;;;;21045221;28;20078;-52
2022/10/17 07:50:32;;;;;;;47.00;28.67;;;12.60;99.90;;;;;;21059577;28;20098;-52
2022/10/17 08:00:36;;;;;;;37.97;25.50;;;13.50;99.90;;;;;;21059293;28;20093;-53
2022/10/17 08:10:38;;;;;;;40.28;25.13;;;14.20;99.90;;;;;;21058142;28;20389;-53
2022/10/17 08:20:42;;;;;;;35.67;24.25;;;14.70;99.90;;;;;;21037461;28;20036;-51
2022/10/17 08:30:46;;;;;;;34.95;24.75;;;15.40;99.90;;;;;;21056595;28;20558;-60
2022/10/17 08:40:48;;;;;;;38.38;26.15;;;16.20;99.90;;;;;;21055796;28;20043;-53
2022/10/17 08:51:11;;;;;;;35.63;25.23;;;16.80;99.90;;;;;;21073129;28;20040;-53
2022/10/17 09:01:44;;;;;;;31.98;23.75;;;17.30;99.90;;;;;;21054160;28;20032;-50
2022/10/17 09:12:06;;;;;;;26.13;19.83;;;17.80;99.90;;;;;;21021539;28;20467;-60
2022/10/17 09:22:22;;;;;;;27.40;20.25;;;18.30;99.90;;;;;;21033336;28;20093;-59
2022/10/17 09:32:25;;;;;;;29.00;21.33;;;18.60;99.90;;;;;;21053986;28;20046;-52
2022/10/17 09:42:29;;;;;;;29.90;21.10;;;18.70;99.90;;;;;;21051844;28;20040;-49
2022/10/17 09:52:39;;;;;;;28.55;20.42;;;18.80;99.90;;;;;;21051527;28;20089;-48
2022/10/17 10:02:42;;;;;;;25.92;20.27;;;19.10;99.90;;;;;;21051626;28;20546;-51
2022/10/17 10:13:20;;;;;;;28.10;20.63;;;19.20;99.90;;;;;;21055818;28;20073;-52
2022/10/17 10:23:23;;;;;;;26.40;18.63;;;19.30;99.90;;;;;;21046755;28;20036;-59
2022/10/17 10:33:28;;;;;;;25.15;17.48;;;19.30;99.90;;;;;;21066017;28;20451;-51
2022/10/17 10:43:39;;;;;;;23.15;17.88;;;19.60;99.90;;;;;;21064934;28;20068;-53
2022/10/17 10:54:10;;;;;;;22.45;17.13;;;19.70;99.90;;;;;;21064209;28;20109;-61
2022/10/17 11:04:28;;;;;;;22.85;18.20;;;19.80;99.90;;;;;;21064165;28;20097;-51
2022/10/17 11:14:43;;;;;;;26.00;20.93;;;20.00;99.90;;;;;;21046887;28;20032;-59
2022/10/17 11:24:48;;;;;;;27.60;20.42;;;20.10;99.90;;;;;;21042219;28;20070;-60
2022/10/17 11:34:58;;;;;;;26.88;20.13;;;20.20;99.90;;;;;;21062309;28;20074;-50
2022/10/17 11:45:13;;;;;;;29.00;21.85;;;20.10;99.90;;;;;;21060603;28;20040;-49
2022/10/17 11:55:19;;;;;;;31.10;23.15;;;19.80;99.90;;;;;;21042799;28;20044;-48
2022/10/17 12:05:33;;;;;;;32.83;23.70;;;19.90;99.90;;;;;;21059121;28;20396;-51
2022/10/17 12:15:36;;;;;;;33.10;23.75;;;20.00;99.90;;;;;;21058220;28;20500;-53
2022/10/17 12:26:00;;;;;;;34.13;25.38;;;19.90;99.90;;;;;;21037388;28;20081;-54
2022/10/17 12:36:20;;;;;;;33.10;25.02;;;19.70;99.90;;;;;;21055300;28;20036;-61
2022/10/17 12:46:55;;;;;;;40.17;27.65;;;19.60;99.90;;;;;;21055510;28;20048;-61
2022/10/17 12:56:57;;;;;;;37.97;27.70;;;19.60;99.90;;;;;;21054716;28;20048;-60
2022/10/17 13:07:01;;;;;;;39.28;28.38;;;19.60;99.90;;;;;;21054085;28;20035;-58
2022/10/17 13:17:19;;;;;;;44.13;31.55;;;19.50;99.90;;;;;;21052408;28;20473;-54
2022/10/17 13:27:28;;;;;;;47.87;34.90;;;19.20;99.90;;;;;;21037565;28;20094;-60
2022/10/17 13:37:31;;;;;;;46.30;33.88;;;18.40;99.90;;;;;;21051822;28;20578;-53
2022/10/17 13:47:38;;;;;;;48.00;34.55;;;18.00;99.90;;;;;;21064061;28;20511;-61
2022/10/17 13:57:41;;;;;;;50.03;35.47;;;17.60;99.90;;;;;;21008508;28;20393;-53
2022/10/17 14:07:56;;;;;;;55.85;37.72;;;17.30;99.90;;;;;;21024113;28;20416;-50
2022/10/17 14:18:04;;;;;;;60.22;40.33;;;16.80;99.90;;;;;;21069660;28;20486;-54
2022/10/17 14:28:11;;;;;;;53.95;37.42;;;16.50;99.90;;;;;;21068610;28;20487;-50
2022/10/17 14:38:18;;;;;;;58.13;37.17;;;16.10;99.90;;;;;;21042458;28;20044;-49
2022/10/17 14:48:23;;;;;;;57.75;37.58;;;15.80;99.90;;;;;;21077653;28;20040;-50
2022/10/17 14:58:31;;;;;;;58.00;39.45;;;15.60;99.90;;;;;;21071931;28;20062;-54
2022/10/17 15:08:34;;;;;;;56.25;36.88;;;15.10;99.90;;;;;;21063452;28;20043;-51
2022/10/17 15:18:36;;;;;;;60.38;38.60;;;14.80;99.90;;;;;;21048417;28;20059;-51
2022/10/17 15:28:39;;;;;;;49.45;31.20;;;14.50;99.90;;;;;;21056671;28;20036;-52
2022/10/17 15:38:41;;;;;;;31.65;19.98;;;13.70;99.90;;;;;;21020574;28;20078;-54
2022/10/17 15:48:44;;;;;;;35.97;21.27;;;13.00;99.90;;;;;;21060863;28;20130;-52
2022/10/17 15:58:47;;;;;;;23.17;14.52;;;12.30;99.90;;;;;;21059813;28;20100;-54
2022/10/17 16:08:51;;;;;;;14.45;9.85;;;11.70;99.90;;;;;;21057584;28;20096;-53
2022/10/17 16:18:54;;;;;;;16.77;10.95;;;11.20;99.90;;;;;;21041793;28;20036;-52
2022/10/17 16:28:57;;;;;;;10.23;6.72;;;10.80;99.90;;;;;;21054533;28;20035;-52
2022/10/17 16:38:59;;;;;;;16.60;10.82;;;10.40;99.90;;;;;;21020145;28;20109;-52
2022/10/17 16:49:04;;;;;;;23.77;14.10;;;10.30;99.90;;;;;;20897330;28;20130;-52
2022/10/17 16:59:08;;;;;;;20.88;13.25;;;10.10;99.90;;;;;;20879946;28;20053;-52
2022/10/17 17:09:11;;;;;;;31.38;19.35;;;10.10;99.90;;;;;;20862913;28;20095;-57
2022/10/17 17:19:15;;;;;;;28.17;14.65;;;10.10;99.90;;;;;;20842915;28;20045;-50
2022/10/17 17:29:19;;;;;;;13.68;8.57;;;10.10;99.90;;;;;;20969821;28;20189;-50
2022/10/17 17:39:22;;;;;;;15.35;9.02;;;9.90;99.90;;;;;;21053135;28;20448;-50
2022/10/17 17:49:24;;;;;;;15.50;8.32;;;9.80;99.90;;;;;;21051499;28;20040;-49
2022/10/17 17:59:26;;;;;;;11.10;7.78;;;9.60;99.90;;;;;;21051795;28;20081;-58
2022/10/17 18:09:30;;;;;;;9.93;6.55;;;9.60;99.90;;;;;;20892469;28;20037;-52
2022/10/17 18:19:33;;;;;;;10.02;4.32;;;9.50;99.90;;;;;;20856396;28;20053;-52
2022/10/17 18:29:35;;;;;;;8.65;3.72;;;9.40;99.90;;;;;;20875551;28;20045;-58
2022/10/17 18:39:38;;;;;;;7.88;4.60;;;9.20;99.90;;;;;;20902235;28;20398;-50
2022/10/17 18:49:41;;;;;;;5.55;3.00;;;9.30;99.90;;;;;;20981340;28;20074;-53
2022/10/17 18:59:44;;;;;;;7.00;3.47;;;9.30;99.90;;;;;;20980669;28;20033;-52
2022/10/17 19:09:48;;;;;;;11.70;7.38;;;9.40;99.90;;;;;;20979604;28;20525;-52
2022/10/17 19:19:52;;;;;;;20.02;10.68;;;9.20;99.90;;;;;;20959372;28;20063;-51
2022/10/17 19:29:54;;;;;;;13.30;7.97;;;9.20;99.90;;;;;;20941167;28;20037;-51
2022/10/17 19:39:57;;;;;;;11.02;7.05;;;9.30;99.90;;;;;;20956470;28;20428;-65
2022/10/17 19:49:59;;;;;;;9.05;5.57;;;9.20;99.90;;;;;;21059782;28;20043;-64
2022/10/17 20:00:02;;;;;;;7.22;5.03;;;9.10;99.90;;;;;;21042925;28;20044;-61
2022/10/17 20:10:14;;;;;;;7.63;4.38;;;9.00;99.90;;;;;;21058565;28;20044;-53
2022/10/17 20:20:17;;;;;;;6.35;4.00;;;8.80;99.90;;;;;;21038336;28;20093;-64
2022/10/17 20:30:20;;;;;;;10.77;5.47;;;8.70;99.90;;;;;;21003206;28;20494;-62
2022/10/17 20:40:22;;;;;;;6.75;4.45;;;8.60;99.90;;;;;;20975846;28;20048;-55
2022/10/17 20:50:25;;;;;;;3.83;2.75;;;8.80;99.90;;;;;;21055245;28;20105;-52
2022/10/17 21:00:27;;;;;;;4.22;2.38;;;9.10;99.90;;;;;;20982565;28;20037;-60
2022/10/17 21:10:30;;;;;;;6.35;4.13;;;9.00;99.90;;;;;;21022826;28;20063;-54
2022/10/17 21:20:33;;;;;;;3.50;2.22;;;9.00;99.90;;;;;;21012946;28;20036;-54
2022/10/17 21:30:35;;;;;;;2.50;1.70;;;8.70;99.90;;;;;;21054824;28;20065;-54
2022/10/17 21:40:38;;;;;;;3.00;2.10;;;8.60;99.90;;;;;;21051968;28;20569;-51
2022/10/17 21:50:40;;;;;;;3.05;1.83;;;8.70;99.90;;;;;;21051748;28;20093;-52
2022/10/17 22:00:42;;;;;;;4.45;1.70;;;8.60;99.90;;;;;;21052007;28;20075;-50
2022/10/17 22:10:46;;;;;;;7.03;2.55;;;8.50;99.90;;;;;;21061552;28;20044;-52
2022/10/17 22:20:48;;;;;;;3.65;2.67;;;8.50;99.90;;;;;;21031520;28;20105;-51
2022/10/17 22:30:54;;;;;;;6.55;2.88;;;8.40;99.90;;;;;;21066966;28;20477;-51
2022/10/17 22:40:56;;;;;;;3.45;2.10;;;8.50;99.90;;;;;;21065577;28;20052;-54
2022/10/17 22:51:00;;;;;;;2.92;2.22;;;8.50;99.90;;;;;;21065053;28;20036;-53
2022/10/17 23:01:05;;;;;;;4.00;2.53;;;8.60;99.90;;;;;;21064786;28;20077;-52
2022/10/17 23:11:09;;;;;;;5.30;2.65;;;8.60;99.90;;;;;;21063769;28;20036;-52
2022/10/17 23:21:12;;;;;;;5.07;2.70;;;8.60;99.90;;;;;;21042794;28;20121;-51
2022/10/17 23:31:19;;;;;;;2.67;1.70;;;8.60;99.90;;;;;;21062391;28;20089;-58
2022/10/17 23:41:22;;;;;;;4.72;1.65;;;8.70;99.90;;;;;;21058960;28;20500;-50
2022/10/17 23:51:24;;;;;;;3.35;2.08;;;8.90;99.90;;;;;;21061648;28;20040;-54
